Time;durP1;ratioP1;P1;durP2;ratioP2;P2;SDS_P1;SDS_P2;PMS_P1;PMS_P2;Temp;Humidity;BMP_temperature;BMP_pressure;BME280_temperature;BME280_humidity;BME280_pressure;Samples;Min_cycle;Max_cycle;Signal;HPM_P1;HPM_P2
2021/09/01 00:01:42;;;;;;;17.77;9.70;;;;;;;;;;5035393;28;20489;-74
2021/09/01 00:04:08;;;;;;;21.87;11.00;;;;;;;;;;5035646;28;20528;-70
2021/09/01 00:06:34;;;;;;;16.60;9.57;;;;;;;;;;5035227;28;20438;-72
2021/09/01 00:09:00;;;;;;;17.37;10.70;;;;;;;;;;5021022;28;20906;-72
2021/09/01 00:11:26;;;;;;;15.60;9.83;;;;;;;;;;5035464;28;20485;-71
2021/09/01 00:13:52;;;;;;;16.47;10.10;;;;;;;;;;5035824;28;20482;-74
2021/09/01 00:16:27;;;;;;;13.67;8.93;;;;;;;;;;5035422;28;20410;-71
2021/09/01 00:18:57;;;;;;;14.87;10.07;;;;;;;;;;5035301;28;20825;-73
2021/09/01 00:21:23;;;;;;;17.60;9.80;;;;;;;;;;5035207;28;20742;-74
2021/09/01 00:23:50;;;;;;;19.27;10.77;;;;;;;;;;5035715;28;20896;-70
2021/09/01 00:26:16;;;;;;;18.20;10.93;;;;;;;;;;5035142;28;20412;-70
2021/09/01 00:28:42;;;;;;;18.33;9.83;;;;;;;;;;5034939;28;20435;-72
2021/09/01 00:31:08;;;;;;;18.47;9.60;;;;;;;;;;5035138;28;20472;-71
2021/09/01 00:33:34;;;;;;;14.17;9.73;;;;;;;;;;5035202;28;20787;-70
2021/09/01 00:36:00;;;;;;;19.00;9.90;;;;;;;;;;5035254;28;20923;-73
2021/09/01 00:38:26;;;;;;;19.30;10.20;;;;;;;;;;5034515;28;20430;-73
2021/09/01 00:40:53;;;;;;;15.77;9.90;;;;;;;;;;5035335;28;20415;-73
2021/09/01 00:43:19;;;;;;;18.20;10.30;;;;;;;;;;5034991;28;20419;-72
2021/09/01 00:45:45;;;;;;;18.37;9.70;;;;;;;;;;5024520;28;20920;-71
2021/09/01 00:48:11;;;;;;;17.23;10.07;;;;;;;;;;5052410;28;20439;-74
2021/09/01 00:50:37;;;;;;;17.50;10.20;;;;;;;;;;5052760;28;20423;-73
2021/09/01 00:53:04;;;;;;;16.43;9.90;;;;;;;;;;5034753;28;20545;-73
2021/09/01 00:55:30;;;;;;;14.90;8.43;;;;;;;;;;5036654;28;20454;-73
2021/09/01 00:57:56;;;;;;;16.80;10.03;;;;;;;;;;5054182;28;20442;-71
2021/09/01 01:00:41;;;;;;;14.47;9.53;;;;;;;;;;5054455;28;20424;-71
2021/09/01 01:03:07;;;;;;;14.50;9.63;;;;;;;;;;5054630;28;20426;-72
2021/09/01 01:05:33;;;;;;;18.80;9.23;;;;;;;;;;5054322;28;21010;-73
2021/09/01 01:07:59;;;;;;;13.63;10.17;;;;;;;;;;5053887;28;20521;-73
2021/09/01 01:10:25;;;;;;;19.00;10.30;;;;;;;;;;5054329;28;20514;-71
2021/09/01 01:12:51;;;;;;;13.33;9.83;;;;;;;;;;5053990;28;20899;-73
2021/09/01 01:15:17;;;;;;;16.87;11.40;;;;;;;;;;5054322;28;20493;-73
2021/09/01 01:17:43;;;;;;;12.93;9.37;;;;;;;;;;5053857;28;20829;-74
2021/09/01 01:20:09;;;;;;;18.87;10.27;;;;;;;;;;5053826;28;20773;-74
2021/09/01 01:22:35;;;;;;;17.77;10.00;;;;;;;;;;5042575;28;20424;-73
2021/09/01 01:25:02;;;;;;;16.70;10.00;;;;;;;;;;5034026;28;20844;-72
2021/09/01 01:27:30;;;;;;;23.90;10.40;;;;;;;;;;5033691;28;20488;-72
2021/09/01 01:30:04;;;;;;;16.73;10.13;;;;;;;;;;5034018;28;20416;-71
2021/09/01 01:32:30;;;;;;;20.60;10.30;;;;;;;;;;5034052;28;20822;-71
2021/09/01 01:34:56;;;;;;;21.30;11.10;;;;;;;;;;5033972;28;20412;-72
2021/09/01 01:37:22;;;;;;;17.20;10.33;;;;;;;;;;5033602;28;20437;-74
2021/09/01 01:39:48;;;;;;;12.73;10.70;;;;;;;;;;5033767;28;20416;-73
2021/09/01 01:42:14;;;;;;;15.40;11.33;;;;;;;;;;5033999;28;20426;-73
2021/09/01 01:44:40;;;;;;;17.30;10.93;;;;;;;;;;5028577;28;20794;-71
2021/09/01 01:47:06;;;;;;;14.90;11.67;;;;;;;;;;5039704;28;20437;-72
2021/09/01 01:49:32;;;;;;;16.17;11.43;;;;;;;;;;5053677;28;20906;-73
2021/09/01 01:51:58;;;;;;;15.10;10.23;;;;;;;;;;5053633;28;20462;-72
2021/09/01 01:54:24;;;;;;;15.10;11.73;;;;;;;;;;5053408;28;20414;-73
2021/09/01 01:56:50;;;;;;;15.20;11.33;;;;;;;;;;5039425;28;20405;-71
2021/09/01 01:59:16;;;;;;;17.50;12.20;;;;;;;;;;5033400;28;20806;-70
2021/09/01 02:01:42;;;;;;;21.47;12.60;;;;;;;;;;5033787;28;20549;-72
2021/09/01 02:04:08;;;;;;;17.90;12.40;;;;;;;;;;5033367;28;20490;-72
2021/09/01 02:06:34;;;;;;;18.67;14.13;;;;;;;;;;5033140;28;20467;-74
2021/09/01 02:09:00;;;;;;;18.90;13.80;;;;;;;;;;5052967;28;20414;-71
2021/09/01 02:11:27;;;;;;;25.20;15.10;;;;;;;;;;5052998;28;20437;-72
2021/09/01 02:13:53;;;;;;;24.80;13.43;;;;;;;;;;5053247;28;20491;-73
2021/09/01 02:16:19;;;;;;;17.43;13.33;;;;;;;;;;5053357;28;20430;-70
2021/09/01 02:18:45;;;;;;;25.43;13.20;;;;;;;;;;5052737;28;20800;-72
2021/09/01 02:21:11;;;;;;;22.00;13.73;;;;;;;;;;5053011;28;20437;-73
2021/09/01 02:23:37;;;;;;;24.87;14.13;;;;;;;;;;5033438;28;20430;-73
2021/09/01 02:26:03;;;;;;;26.07;13.60;;;;;;;;;;5033348;28;20511;-74
2021/09/01 02:28:29;;;;;;;27.57;15.73;;;;;;;;;;5032619;28;20514;-73
2021/09/01 02:30:55;;;;;;;21.33;15.40;;;;;;;;;;5033072;28;20831;-73
2021/09/01 02:33:21;;;;;;;24.57;15.00;;;;;;;;;;5032308;28;20818;-71
2021/09/01 02:35:47;;;;;;;28.13;15.53;;;;;;;;;;5033110;28;20427;-72
2021/09/01 02:38:13;;;;;;;32.20;16.70;;;;;;;;;;5032479;28;20531;-70
2021/09/01 02:40:39;;;;;;;23.33;15.10;;;;;;;;;;5032939;28;20495;-73
2021/09/01 02:43:05;;;;;;;22.90;14.27;;;;;;;;;;5033145;28;20727;-71
2021/09/01 02:45:31;;;;;;;29.60;16.70;;;;;;;;;;5021214;28;20840;-73
2021/09/01 02:47:57;;;;;;;25.70;15.33;;;;;;;;;;5052416;28;20489;-73
2021/09/01 02:50:24;;;;;;;26.47;16.20;;;;;;;;;;5052621;28;20428;-72
2021/09/01 02:52:50;;;;;;;25.40;17.00;;;;;;;;;;5053003;28;20855;-72
2021/09/01 02:55:16;;;;;;;26.57;17.80;;;;;;;;;;5051812;28;20419;-70
2021/09/01 02:57:43;;;;;;;25.20;15.93;;;;;;;;;;5019692;28;20439;-72
2021/09/01 03:00:09;;;;;;;23.73;16.23;;;;;;;;;;5032932;28;20411;-72
2021/09/01 03:02:35;;;;;;;23.93;17.17;;;;;;;;;;5032919;28;20435;-73
2021/09/01 03:05:02;;;;;;;31.23;15.40;;;;;;;;;;5032454;28;20442;-73
2021/09/01 03:07:28;;;;;;;26.73;16.47;;;;;;;;;;5039315;28;20446;-71
2021/09/01 03:09:53;;;;;;;26.03;16.60;;;;;;;;;;5052440;28;20415;-71
2021/09/01 03:12:20;;;;;;;31.47;16.80;;;;;;;;;;5052707;28;20466;-71
2021/09/01 03:14:45;;;;;;;30.90;15.97;;;;;;;;;;5052608;28;20418;-71
2021/09/01 03:17:11;;;;;;;28.33;16.60;;;;;;;;;;5052192;28;20429;-73
2021/09/01 03:19:37;;;;;;;34.70;16.43;;;;;;;;;;5052403;28;20411;-72
2021/09/01 03:22:03;;;;;;;34.33;18.50;;;;;;;;;;5037853;28;20420;-71
2021/09/01 03:24:29;;;;;;;31.90;17.00;;;;;;;;;;5040821;28;20408;-71
2021/09/01 03:26:55;;;;;;;31.70;17.33;;;;;;;;;;5052495;28;20430;-73
2021/09/01 03:29:21;;;;;;;38.17;20.33;;;;;;;;;;5044220;28;20417;-74
2021/09/01 03:31:47;;;;;;;38.03;16.83;;;;;;;;;;5032638;28;20412;-70
2021/09/01 03:34:13;;;;;;;34.83;17.07;;;;;;;;;;5032605;28;20406;-71
2021/09/01 03:36:39;;;;;;;29.60;16.37;;;;;;;;;;5032149;28;20753;-73
2021/09/01 03:39:05;;;;;;;31.10;16.87;;;;;;;;;;5032486;28;20402;-74
2021/09/01 03:41:31;;;;;;;29.33;15.73;;;;;;;;;;5032616;28;20403;-72
2021/09/01 03:43:57;;;;;;;32.73;17.23;;;;;;;;;;5034652;28;20411;-71
2021/09/01 03:46:23;;;;;;;32.23;15.47;;;;;;;;;;5030472;28;20493;-73
2021/09/01 03:48:49;;;;;;;33.53;16.60;;;;;;;;;;5055743;28;20433;-71
2021/09/01 03:51:15;;;;;;;42.73;17.20;;;;;;;;;;5056021;28;20493;-71
2021/09/01 03:53:41;;;;;;;34.90;16.17;;;;;;;;;;5055842;28;20855;-71
2021/09/01 03:56:09;;;;;;;33.77;16.07;;;;;;;;;;5047649;28;20417;-73
2021/09/01 03:58:35;;;;;;;27.47;14.53;;;;;;;;;;5049272;28;20438;-73
2021/09/01 04:01:01;;;;;;;30.50;16.07;;;;;;;;;;5055781;28;20948;-73
2021/09/01 04:03:27;;;;;;;27.23;16.33;;;;;;;;;;5055680;28;20417;-73
2021/09/01 04:05:53;;;;;;;30.87;14.40;;;;;;;;;;5055449;28;21274;-74
2021/09/01 04:08:19;;;;;;;27.83;14.37;;;;;;;;;;5041198;28;20441;-73
2021/09/01 04:10:45;;;;;;;29.23;15.10;;;;;;;;;;5035643;28;20413;-71
2021/09/01 04:13:11;;;;;;;32.97;14.80;;;;;;;;;;5035614;28;20929;-72
2021/09/01 04:15:37;;;;;;;30.33;14.37;;;;;;;;;;5035458;28;20416;-73
2021/09/01 04:18:03;;;;;;;28.37;14.40;;;;;;;;;;5034990;28;20429;-69
2021/09/01 04:20:29;;;;;;;27.03;15.07;;;;;;;;;;5035312;28;20415;-73
2021/09/01 04:22:55;;;;;;;24.03;15.27;;;;;;;;;;5035260;28;20765;-70
2021/09/01 04:25:21;;;;;;;33.43;15.00;;;;;;;;;;5035402;28;20413;-73
2021/09/01 04:27:47;;;;;;;33.40;15.93;;;;;;;;;;5034950;28;20435;-72
2021/09/01 04:30:13;;;;;;;32.13;16.10;;;;;;;;;;5035329;28;20429;-69
2021/09/01 04:32:39;;;;;;;26.53;14.90;;;;;;;;;;5035225;28;20526;-71
2021/09/01 04:35:05;;;;;;;30.07;16.13;;;;;;;;;;5035039;28;20428;-70
2021/09/01 04:37:31;;;;;;;29.30;16.13;;;;;;;;;;5034945;28;20433;-71
2021/09/01 04:39:57;;;;;;;26.07;14.53;;;;;;;;;;5035162;28;20485;-70
2021/09/01 04:42:23;;;;;;;22.00;14.70;;;;;;;;;;5034858;28;20414;-72
2021/09/01 04:44:49;;;;;;;31.07;15.70;;;;;;;;;;5028504;28;20420;-71
2021/09/01 04:47:15;;;;;;;26.60;14.70;;;;;;;;;;5042667;28;20492;-73
2021/09/01 04:49:41;;;;;;;32.40;15.27;;;;;;;;;;5035110;28;20845;-72
2021/09/01 04:52:07;;;;;;;28.77;15.93;;;;;;;;;;5034840;28;20458;-72
2021/09/01 04:54:33;;;;;;;29.80;16.13;;;;;;;;;;5034041;28;20490;-71
2021/09/01 04:56:59;;;;;;;31.23;17.00;;;;;;;;;;5047756;28;20430;-70
2021/09/01 04:59:25;;;;;;;35.00;17.07;;;;;;;;;;5035013;28;20410;-73
2021/09/01 05:01:51;;;;;;;30.13;15.83;;;;;;;;;;5034778;28;20412;-71
2021/09/01 05:04:17;;;;;;;32.97;15.97;;;;;;;;;;5034910;28;20411;-71
2021/09/01 05:06:43;;;;;;;28.03;15.20;;;;;;;;;;5033822;28;20809;-70
2021/09/01 05:09:09;;;;;;;31.33;16.03;;;;;;;;;;5034654;28;20419;-73
2021/09/01 05:11:35;;;;;;;26.93;16.13;;;;;;;;;;5034557;28;20406;-70
2021/09/01 05:14:01;;;;;;;27.63;14.53;;;;;;;;;;5034999;28;20446;-69
2021/09/01 05:16:27;;;;;;;29.17;16.00;;;;;;;;;;5034268;28;20593;-72
2021/09/01 05:18:53;;;;;;;24.50;14.77;;;;;;;;;;5034141;28;20439;-72
2021/09/01 05:21:21;;;;;;;23.43;13.67;;;;;;;;;;5034469;28;21001;-72
2021/09/01 05:23:49;;;;;;;25.20;14.00;;;;;;;;;;5034487;28;20500;-74
2021/09/01 05:26:18;;;;;;;20.77;13.80;;;;;;;;;;5034220;28;20422;-72
2021/09/01 05:28:45;;;;;;;21.53;12.73;;;;;;;;;;5033819;28;20785;-72
2021/09/01 05:31:12;;;;;;;22.00;12.97;;;;;;;;;;5034058;28;20478;-73
2021/09/01 05:33:39;;;;;;;25.00;13.70;;;;;;;;;;5034149;28;20463;-71
2021/09/01 05:36:05;;;;;;;17.67;12.73;;;;;;;;;;5034082;28;20420;-73
2021/09/01 05:38:33;;;;;;;20.17;12.07;;;;;;;;;;5033689;28;20434;-72
2021/09/01 05:40:59;;;;;;;21.10;12.53;;;;;;;;;;5033647;28;20798;-73
2021/09/01 05:43:25;;;;;;;18.07;11.77;;;;;;;;;;5034091;28;20494;-71
2021/09/01 05:45:51;;;;;;;20.00;12.30;;;;;;;;;;5023918;28;20839;-70
2021/09/01 05:48:21;;;;;;;21.73;13.03;;;;;;;;;;5053376;28;20460;-72
2021/09/01 05:50:51;;;;;;;23.10;13.30;;;;;;;;;;5053355;28;20452;-72
2021/09/01 05:53:17;;;;;;;18.53;13.20;;;;;;;;;;5053697;28;20539;-71
2021/09/01 05:55:44;;;;;;;20.50;13.47;;;;;;;;;;5048846;28;20819;-74
2021/09/01 05:58:15;;;;;;;21.20;13.30;;;;;;;;;;5033341;28;20438;-71
2021/09/01 06:00:42;;;;;;;20.07;12.30;;;;;;;;;;5033591;28;20904;-73
2021/09/01 06:03:11;;;;;;;19.53;12.67;;;;;;;;;;5033564;28;20433;-72
2021/09/01 06:05:38;;;;;;;23.20;15.40;;;;;;;;;;5032981;28;20440;-70
2021/09/01 06:08:06;;;;;;;24.33;13.80;;;;;;;;;;5033200;28;20445;-72
2021/09/01 06:10:33;;;;;;;22.10;15.00;;;;;;;;;;5033462;28;20434;-71
2021/09/01 06:13:04;;;;;;;21.47;14.03;;;;;;;;;;5032935;28;20470;-71
2021/09/01 06:15:31;;;;;;;21.13;14.30;;;;;;;;;;5020101;28;20426;-70
2021/09/01 06:17:58;;;;;;;22.90;14.33;;;;;;;;;;5032792;28;20438;-71
2021/09/01 06:20:24;;;;;;;25.73;14.50;;;;;;;;;;5032842;28;20409;-74
2021/09/01 06:22:50;;;;;;;24.13;15.70;;;;;;;;;;5032805;28;20434;-73
2021/09/01 06:25:16;;;;;;;21.43;16.10;;;;;;;;;;5032994;28;20422;-73
2021/09/01 06:27:42;;;;;;;20.20;13.97;;;;;;;;;;5032611;28;20942;-71
2021/09/01 06:30:09;;;;;;;22.87;15.07;;;;;;;;;;5032848;28;20449;-72
2021/09/01 06:32:35;;;;;;;24.03;14.87;;;;;;;;;;5047255;28;20456;-72
2021/09/01 06:35:01;;;;;;;25.57;15.33;;;;;;;;;;5053212;28;20415;-73
2021/09/01 06:37:27;;;;;;;20.70;12.90;;;;;;;;;;5040939;28;20441;-70
2021/09/01 06:39:53;;;;;;;23.30;14.97;;;;;;;;;;5032849;28;20420;-72
2021/09/01 06:42:20;;;;;;;21.67;15.43;;;;;;;;;;5026656;28;20781;-72
2021/09/01 06:44:46;;;;;;;23.90;16.60;;;;;;;;;;5023391;28;20995;-72
2021/09/01 06:47:12;;;;;;;23.63;15.10;;;;;;;;;;5023151;28;20451;-71
2021/09/01 06:49:38;;;;;;;26.17;16.10;;;;;;;;;;5023878;28;20437;-70
2021/09/01 06:52:04;;;;;;;22.70;14.93;;;;;;;;;;5025740;28;20499;-73
2021/09/01 06:54:30;;;;;;;25.37;15.70;;;;;;;;;;5036867;28;20434;-72
2021/09/01 06:56:56;;;;;;;21.73;15.47;;;;;;;;;;5024097;28;20945;-71
2021/09/01 06:59:22;;;;;;;24.13;15.50;;;;;;;;;;5048921;28;20433;-73
2021/09/01 07:01:48;;;;;;;25.53;16.33;;;;;;;;;;5033988;28;20751;-73
2021/09/01 07:04:14;;;;;;;22.73;15.07;;;;;;;;;;5029207;28;20766;-72
2021/09/01 07:06:40;;;;;;;25.73;15.60;;;;;;;;;;5028442;28;20447;-72
2021/09/01 07:09:06;;;;;;;20.37;14.57;;;;;;;;;;5032405;28;20419;-73
2021/09/01 07:11:32;;;;;;;29.63;15.33;;;;;;;;;;5048812;28;20424;-73
2021/09/01 07:13:58;;;;;;;21.57;14.37;;;;;;;;;;5048920;28;20465;-72
2021/09/01 07:16:25;;;;;;;17.87;13.90;;;;;;;;;;5048732;28;20453;-72
2021/09/01 07:18:51;;;;;;;18.87;14.60;;;;;;;;;;5030392;28;20436;-71
2021/09/01 07:21:17;;;;;;;21.07;14.23;;;;;;;;;;5032682;28;20411;-73
2021/09/01 07:23:43;;;;;;;18.50;13.90;;;;;;;;;;5032501;28;20455;-73
2021/09/01 07:26:10;;;;;;;21.60;15.00;;;;;;;;;;5046843;28;20462;-72
2021/09/01 07:28:40;;;;;;;16.13;12.30;;;;;;;;;;5050215;28;20454;-74
2021/09/01 07:31:07;;;;;;;16.13;12.80;;;;;;;;;;5032494;28;20420;-72
2021/09/01 07:33:33;;;;;;;18.80;13.90;;;;;;;;;;5031138;28;20470;-71
2021/09/01 07:35:59;;;;;;;17.90;13.30;;;;;;;;;;5042657;28;20428;-70
2021/09/01 07:38:25;;;;;;;17.10;11.73;;;;;;;;;;5050037;28;20443;-74
2021/09/01 07:40:52;;;;;;;19.80;12.70;;;;;;;;;;5051044;28;20429;-72
2021/09/01 07:43:19;;;;;;;17.60;11.93;;;;;;;;;;5032368;28;20420;-73
2021/09/01 07:45:45;;;;;;;17.40;11.83;;;;;;;;;;5023008;28;20444;-72
2021/09/01 07:48:15;;;;;;;15.00;12.87;;;;;;;;;;5030544;28;20483;-73
2021/09/01 07:50:41;;;;;;;16.87;12.77;;;;;;;;;;5032185;28;20420;-73
2021/09/01 07:53:08;;;;;;;17.23;14.67;;;;;;;;;;5032844;28;21243;-73
2021/09/01 07:55:34;;;;;;;19.27;12.77;;;;;;;;;;5035571;28;20430;-71
2021/09/01 07:58:00;;;;;;;16.20;14.00;;;;;;;;;;5040366;28;20950;-72
2021/09/01 08:00:26;;;;;;;18.43;14.03;;;;;;;;;;5042092;28;20968;-72
2021/09/01 08:02:52;;;;;;;16.60;14.10;;;;;;;;;;5032227;28;20435;-71
2021/09/01 08:05:19;;;;;;;17.20;12.73;;;;;;;;;;5031945;28;20444;-72
2021/09/01 08:07:45;;;;;;;14.67;12.00;;;;;;;;;;5031479;28;20460;-72
2021/09/01 08:10:11;;;;;;;17.70;12.77;;;;;;;;;;5031969;28;21003;-73
2021/09/01 08:12:37;;;;;;;17.93;12.70;;;;;;;;;;5035493;28;20558;-72
2021/09/01 08:15:03;;;;;;;14.80;11.70;;;;;;;;;;5035308;28;20454;-73
2021/09/01 08:17:29;;;;;;;15.63;12.13;;;;;;;;;;5052682;28;20466;-74
2021/09/01 08:19:55;;;;;;;21.30;13.67;;;;;;;;;;5036887;28;20430;-72
2021/09/01 08:22:21;;;;;;;16.70;12.17;;;;;;;;;;5033646;28;20511;-74
2021/09/01 08:24:47;;;;;;;15.20;12.77;;;;;;;;;;5048041;28;20531;-72
2021/09/01 08:27:14;;;;;;;20.17;12.20;;;;;;;;;;5051098;28;20440;-74
2021/09/01 08:29:40;;;;;;;23.53;12.20;;;;;;;;;;5039583;28;20475;-72
2021/09/01 08:32:06;;;;;;;12.70;10.47;;;;;;;;;;5031327;28;20463;-74
2021/09/01 08:34:32;;;;;;;23.50;10.70;;;;;;;;;;5034284;28;20443;-72
2021/09/01 08:37:00;;;;;;;11.93;9.77;;;;;;;;;;5041928;28;20468;-72
2021/09/01 08:39:26;;;;;;;11.40;10.30;;;;;;;;;;5047809;28;20885;-70
2021/09/01 08:41:53;;;;;;;10.83;8.83;;;;;;;;;;5051283;28;20447;-72
2021/09/01 08:44:20;;;;;;;11.00;9.90;;;;;;;;;;5046912;28;20496;-72
2021/09/01 08:46:49;;;;;;;12.23;10.20;;;;;;;;;;5021188;28;20877;-72
2021/09/01 08:49:15;;;;;;;10.60;9.23;;;;;;;;;;5030983;28;20413;-71
2021/09/01 08:51:41;;;;;;;11.77;9.03;;;;;;;;;;5031352;28;20853;-71
2021/09/01 08:54:08;;;;;;;12.17;9.90;;;;;;;;;;5030793;28;20471;-71
2021/09/01 08:56:34;;;;;;;11.33;9.37;;;;;;;;;;5041739;28;20425;-72
2021/09/01 08:59:00;;;;;;;10.00;9.07;;;;;;;;;;5050773;28;20428;-72
2021/09/01 09:01:42;;;;;;;10.27;9.37;;;;;;;;;;5039026;28;20923;-71
2021/09/01 09:04:22;;;;;;;10.00;9.10;;;;;;;;;;5030702;28;20431;-71
2021/09/01 09:06:59;;;;;;;9.83;8.80;;;;;;;;;;5028983;28;20827;-73
2021/09/01 09:09:35;;;;;;;9.53;7.73;;;;;;;;;;5030921;28;20429;-72
2021/09/01 09:12:02;;;;;;;10.00;8.63;;;;;;;;;;5030623;28;20418;-72
2021/09/01 09:14:33;;;;;;;12.53;9.67;;;;;;;;;;5030756;28;20424;-73
2021/09/01 09:17:19;;;;;;;12.17;9.50;;;;;;;;;;5030257;28;20435;-71
2021/09/01 09:19:55;;;;;;;13.40;9.00;;;;;;;;;;5030709;28;21140;-70
2021/09/01 09:22:41;;;;;;;10.30;9.20;;;;;;;;;;5030428;28;20427;-72
2021/09/01 09:25:09;;;;;;;10.17;8.97;;;;;;;;;;5030436;28;20427;-71
2021/09/01 09:27:36;;;;;;;11.17;9.23;;;;;;;;;;5030260;28;20440;-71
2021/09/01 09:30:03;;;;;;;10.30;9.10;;;;;;;;;;5030316;28;20417;-71
2021/09/01 09:32:29;;;;;;;12.20;9.83;;;;;;;;;;5030315;28;20460;-70
2021/09/01 09:34:58;;;;;;;10.30;9.30;;;;;;;;;;5036409;28;20441;-72
2021/09/01 09:37:24;;;;;;;10.40;8.87;;;;;;;;;;5049594;28;20437;-71
2021/09/01 09:39:52;;;;;;;13.47;8.30;;;;;;;;;;5030371;28;20814;-71
2021/09/01 09:42:31;;;;;;;7.87;7.07;;;;;;;;;;5029800;28;20421;-72
2021/09/01 09:44:57;;;;;;;8.33;7.53;;;;;;;;;;5022926;28;20429;-72
2021/09/01 09:47:42;;;;;;;7.90;6.70;;;;;;;;;;5041080;28;20443;-71
2021/09/01 09:50:09;;;;;;;9.30;7.27;;;;;;;;;;5049931;28;20441;-72
2021/09/01 09:52:38;;;;;;;7.10;6.50;;;;;;;;;;5049995;28;20625;-71
2021/09/01 09:55:14;;;;;;;7.60;6.70;;;;;;;;;;5050035;28;20430;-71
2021/09/01 09:57:57;;;;;;;8.23;6.60;;;;;;;;;;5023694;28;20438;-72
2021/09/01 10:00:24;;;;;;;7.50;6.90;;;;;;;;;;5025230;28;20439;-71
2021/09/01 10:02:50;;;;;;;7.60;6.93;;;;;;;;;;5030010;28;20408;-72
2021/09/01 10:05:17;;;;;;;6.77;6.17;;;;;;;;;;5045866;28;20442;-72
2021/09/01 10:07:47;;;;;;;6.73;6.07;;;;;;;;;;5049520;28;20431;-71
2021/09/01 10:10:14;;;;;;;6.93;6.20;;;;;;;;;;5049502;28;20952;-72
2021/09/01 10:12:41;;;;;;;6.97;6.37;;;;;;;;;;5049720;28;20576;-69
2021/09/01 10:15:08;;;;;;;6.03;5.53;;;;;;;;;;5045991;28;20415;-71
2021/09/01 10:17:39;;;;;;;6.47;5.97;;;;;;;;;;5049170;28;20797;-72
2021/09/01 10:20:05;;;;;;;6.77;6.17;;;;;;;;;;5040763;28;20435;-72
2021/09/01 10:22:31;;;;;;;6.13;5.60;;;;;;;;;;5029434;28;20477;-72
2021/09/01 10:24:57;;;;;;;6.93;6.33;;;;;;;;;;5029143;28;20424;-72
2021/09/01 10:27:25;;;;;;;9.93;5.77;;;;;;;;;;5028972;28;20451;-71
2021/09/01 10:29:53;;;;;;;5.80;5.30;;;;;;;;;;5033697;28;20928;-73
2021/09/01 10:32:22;;;;;;;6.83;6.23;;;;;;;;;;5049166;28;21169;-73
2021/09/01 10:34:48;;;;;;;6.30;5.70;;;;;;;;;;5040576;28;20438;-73
2021/09/01 10:37:38;;;;;;;8.43;6.50;;;;;;;;;;5048586;28;20467;-73
2021/09/01 10:40:05;;;;;;;7.20;5.53;;;;;;;;;;5018135;28;20405;-72
2021/09/01 10:42:34;;;;;;;7.20;6.50;;;;;;;;;;5029133;28;20805;-71
2021/09/01 10:45:01;;;;;;;6.40;5.90;;;;;;;;;;5021279;28;20503;-72
2021/09/01 10:47:27;;;;;;;6.70;5.97;;;;;;;;;;5026990;28;20441;-72
2021/09/01 10:49:56;;;;;;;6.80;6.10;;;;;;;;;;5029084;28;20419;-70
2021/09/01 10:52:22;;;;;;;6.67;6.00;;;;;;;;;;5029171;28;20861;-73
2021/09/01 10:54:51;;;;;;;7.60;6.70;;;;;;;;;;5032986;28;21107;-73
2021/09/01 10:57:22;;;;;;;9.00;6.83;;;;;;;;;;5049675;28;20431;-72
2021/09/01 10:59:48;;;;;;;5.90;5.40;;;;;;;;;;5038626;28;20474;-71
2021/09/01 11:02:14;;;;;;;6.40;5.23;;;;;;;;;;5033145;28;20821;-72
2021/09/01 11:04:56;;;;;;;5.80;5.30;;;;;;;;;;5032772;28;20785;-73
2021/09/01 11:07:26;;;;;;;6.27;5.10;;;;;;;;;;5050956;28;20439;-72
2021/09/01 11:10:00;;;;;;;7.60;6.10;;;;;;;;;;5052863;28;20415;-73
2021/09/01 11:12:27;;;;;;;7.67;6.73;;;;;;;;;;5052799;28;20471;-72
2021/09/01 11:14:54;;;;;;;10.00;6.80;;;;;;;;;;5036068;28;20432;-73
2021/09/01 11:17:21;;;;;;;6.47;5.87;;;;;;;;;;5039517;28;20485;-72
2021/09/01 11:19:48;;;;;;;6.33;5.73;;;;;;;;;;5045609;28;20428;-72
2021/09/01 11:22:15;;;;;;;5.83;5.10;;;;;;;;;;5039287;28;20420;-74
2021/09/01 11:24:52;;;;;;;6.43;5.80;;;;;;;;;;5052566;28;20431;-74
2021/09/01 11:27:20;;;;;;;6.37;5.87;;;;;;;;;;5052007;28;20966;-72
2021/09/01 11:29:46;;;;;;;6.70;6.10;;;;;;;;;;5040860;28;21053;-71
2021/09/01 11:32:20;;;;;;;6.40;5.90;;;;;;;;;;5032275;28;20460;-72
2021/09/01 11:34:46;;;;;;;7.90;7.10;;;;;;;;;;5038931;28;20425;-72
2021/09/01 11:37:13;;;;;;;5.80;5.30;;;;;;;;;;5040940;28;20487;-74
2021/09/01 11:39:44;;;;;;;6.57;6.10;;;;;;;;;;5036838;28;20466;-71
2021/09/01 11:42:10;;;;;;;6.40;5.80;;;;;;;;;;5052124;28;20411;-71
2021/09/01 11:44:36;;;;;;;8.93;6.30;;;;;;;;;;5043039;28;20421;-72
2021/09/01 11:47:02;;;;;;;6.53;5.93;;;;;;;;;;5023558;28;20443;-71
2021/09/01 11:49:28;;;;;;;6.07;5.53;;;;;;;;;;5032284;28;20452;-73
2021/09/01 11:51:54;;;;;;;7.20;6.50;;;;;;;;;;5045610;28;20415;-72
2021/09/01 11:54:20;;;;;;;6.30;5.80;;;;;;;;;;5033947;28;20495;-71
2021/09/01 11:56:46;;;;;;;6.73;6.23;;;;;;;;;;5043439;28;20423;-71
2021/09/01 11:59:13;;;;;;;7.23;6.50;;;;;;;;;;5052196;28;20822;-74
2021/09/01 12:01:56;;;;;;;6.63;6.07;;;;;;;;;;5052077;28;20415;-73
2021/09/01 12:04:23;;;;;;;7.20;6.67;;;;;;;;;;5050924;28;20454;-74
2021/09/01 12:06:53;;;;;;;6.80;6.20;;;;;;;;;;5031805;28;20781;-73
2021/09/01 12:09:20;;;;;;;7.97;7.17;;;;;;;;;;5034296;28;20409;-73
2021/09/01 12:11:50;;;;;;;7.67;6.97;;;;;;;;;;5032318;28;20448;-74
2021/09/01 12:14:18;;;;;;;7.23;6.53;;;;;;;;;;5045059;28;20470;-73
2021/09/01 12:16:44;;;;;;;8.47;7.30;;;;;;;;;;5047007;28;20420;-71
2021/09/01 12:19:12;;;;;;;6.20;5.70;;;;;;;;;;5035516;28;20999;-73
2021/09/01 12:22:00;;;;;;;7.23;6.53;;;;;;;;;;5046804;28;20412;-75
2021/09/01 12:24:33;;;;;;;8.90;6.53;;;;;;;;;;5032442;28;20420;-72
2021/09/01 12:27:07;;;;;;;7.30;6.60;;;;;;;;;;5031161;28;20510;-74
2021/09/01 12:29:39;;;;;;;6.90;6.30;;;;;;;;;;5021387;28;20427;-74
2021/09/01 12:32:06;;;;;;;6.73;5.70;;;;;;;;;;5031270;28;20939;-75
2021/09/01 12:34:43;;;;;;;6.53;5.47;;;;;;;;;;5031488;28;20421;-73
2021/09/01 12:37:13;;;;;;;7.00;6.40;;;;;;;;;;5039201;28;20447;-74
2021/09/01 12:39:40;;;;;;;7.00;6.40;;;;;;;;;;5031585;28;20408;-73
2021/09/01 12:42:07;;;;;;;8.63;6.57;;;;;;;;;;5031315;28;20419;-71
2021/09/01 12:44:52;;;;;;;6.50;5.90;;;;;;;;;;5031170;28;20475;-71
2021/09/01 12:47:19;;;;;;;6.37;5.77;;;;;;;;;;5030702;28;20432;-74
2021/09/01 12:49:47;;;;;;;7.03;5.90;;;;;;;;;;5031452;28;20417;-72
2021/09/01 12:52:13;;;;;;;6.40;5.77;;;;;;;;;;5030970;28;20421;-72
2021/09/01 12:54:40;;;;;;;7.20;6.50;;;;;;;;;;5031284;28;20417;-73
2021/09/01 12:57:06;;;;;;;7.27;6.57;;;;;;;;;;5036528;28;20438;-73
2021/09/01 12:59:34;;;;;;;8.40;6.67;;;;;;;;;;5050999;28;20415;-73
2021/09/01 13:02:01;;;;;;;7.10;6.50;;;;;;;;;;5050942;28;20444;-73
2021/09/01 13:04:28;;;;;;;7.70;6.40;;;;;;;;;;5046588;28;20412;-70
2021/09/01 13:06:55;;;;;;;7.43;5.93;;;;;;;;;;5030449;28;20479;-73
2021/09/01 13:09:21;;;;;;;6.43;5.93;;;;;;;;;;5030578;28;20412;-71
2021/09/01 13:11:47;;;;;;;6.97;6.47;;;;;;;;;;5030600;28;20416;-72
2021/09/01 13:14:14;;;;;;;6.80;6.13;;;;;;;;;;5044867;28;20540;-72
2021/09/01 13:16:40;;;;;;;7.77;6.97;;;;;;;;;;5049640;28;20411;-73
2021/09/01 13:19:06;;;;;;;7.33;6.70;;;;;;;;;;5050298;28;20416;-71
2021/09/01 13:21:32;;;;;;;6.37;5.77;;;;;;;;;;5047598;28;20417;-71
2021/09/01 13:23:58;;;;;;;12.30;6.43;;;;;;;;;;5030401;28;20514;-73
2021/09/01 13:26:24;;;;;;;8.60;6.47;;;;;;;;;;5030579;28;20427;-72
2021/09/01 13:28:50;;;;;;;8.60;7.73;;;;;;;;;;5029776;28;20440;-74
2021/09/01 13:31:16;;;;;;;6.90;6.20;;;;;;;;;;5030173;28;20826;-73
2021/09/01 13:33:42;;;;;;;7.43;6.70;;;;;;;;;;5030165;28;20646;-73
2021/09/01 13:36:08;;;;;;;7.37;6.57;;;;;;;;;;5032570;28;21126;-72
2021/09/01 13:38:34;;;;;;;7.40;6.63;;;;;;;;;;5035567;28;20428;-71
2021/09/01 13:41:00;;;;;;;8.43;6.90;;;;;;;;;;5030215;28;20529;-75
2021/09/01 13:43:26;;;;;;;8.97;6.07;;;;;;;;;;5029961;28;20429;-74
2021/09/01 13:45:52;;;;;;;7.53;6.70;;;;;;;;;;5030265;28;20443;-74
2021/09/01 13:48:18;;;;;;;7.00;6.30;;;;;;;;;;5028163;28;20448;-70
2021/09/01 13:50:44;;;;;;;7.20;6.50;;;;;;;;;;5030138;28;20755;-72
2021/09/01 13:53:13;;;;;;;9.17;7.03;;;;;;;;;;5029620;28;20460;-72
2021/09/01 13:55:39;;;;;;;7.07;6.37;;;;;;;;;;5029934;28;20412;-72
2021/09/01 13:58:05;;;;;;;8.47;6.77;;;;;;;;;;5044113;28;20431;-75
2021/09/01 14:00:31;;;;;;;7.60;6.90;;;;;;;;;;5049908;28;20416;-74
2021/09/01 14:02:58;;;;;;;8.40;6.10;;;;;;;;;;5049525;28;20446;-76
2021/09/01 14:05:24;;;;;;;11.30;8.20;;;;;;;;;;5029865;28;20441;-73
2021/09/01 14:07:50;;;;;;;9.17;7.07;;;;;;;;;;5038680;28;21074;-73
2021/09/01 14:10:16;;;;;;;8.47;7.77;;;;;;;;;;5049768;28;20743;-72
2021/09/01 14:12:42;;;;;;;8.00;7.30;;;;;;;;;;5049634;28;20459;-73
2021/09/01 14:15:09;;;;;;;8.33;7.43;;;;;;;;;;5049729;28;20422;-72
2021/09/01 14:17:35;;;;;;;7.67;6.93;;;;;;;;;;5039644;28;20486;-74
2021/09/01 14:20:02;;;;;;;7.63;6.83;;;;;;;;;;5029803;28;20419;-76
2021/09/01 14:22:28;;;;;;;10.13;7.47;;;;;;;;;;5029474;28;20448;-73
2021/09/01 14:24:54;;;;;;;8.53;7.70;;;;;;;;;;5029353;28;21013;-76
2021/09/01 14:27:20;;;;;;;8.83;7.23;;;;;;;;;;5028210;28;20437;-74